sensor_id;sensor_type;location;lat;lon;timestamp;P1;durP1;ratioP1;P2;durP2;ratioP2
16705;SDS011;8469;60.136;15.180;2023-06-26T00:02:12;2.22;;;2.02;;
16705;SDS011;8469;60.136;15.180;2023-06-26T00:04:41;3.47;;;1.90;;
16705;SDS011;8469;60.136;15.180;2023-06-26T00:07:07;2.25;;;2.00;;
16705;SDS011;8469;60.136;15.180;2023-06-26T00:09:36;2.00;;;1.90;;
16705;SDS011;8469;60.136;15.180;2023-06-26T00:12:04;3.00;;;2.00;;
16705;SDS011;8469;60.136;15.180;2023-06-26T00:14:31;2.35;;;2.10;;
16705;SDS011;8469;60.136;15.180;2023-06-26T00:16:59;2.12;;;1.90;;
16705;SDS011;8469;60.136;15.180;2023-06-26T00:19:26;2.50;;;2.10;;
16705;SDS011;8469;60.136;15.180;2023-06-26T00:21:54;2.95;;;2.10;;
16705;SDS011;8469;60.136;15.180;2023-06-26T00:24:21;2.12;;;2.00;;
16705;SDS011;8469;60.136;15.180;2023-06-26T00:26:49;2.30;;;2.10;;
16705;SDS011;8469;60.136;15.180;2023-06-26T00:29:16;2.22;;;2.10;;
16705;SDS011;8469;60.136;15.180;2023-06-26T00:31:43;2.30;;;2.10;;
16705;SDS011;8469;60.136;15.180;2023-06-26T00:34:11;2.10;;;1.90;;
16705;SDS011;8469;60.136;15.180;2023-06-26T00:36:38;3.70;;;2.00;;
16705;SDS011;8469;60.136;15.180;2023-06-26T00:39:07;2.42;;;2.22;;
16705;SDS011;8469;60.136;15.180;2023-06-26T00:41:35;2.37;;;2.17;;
16705;SDS011;8469;60.136;15.180;2023-06-26T00:44:05;2.62;;;2.00;;
16705;SDS011;8469;60.136;15.180;2023-06-26T00:46:32;3.55;;;2.20;;
16705;SDS011;8469;60.136;15.180;2023-06-26T00:49:00;3.08;;;2.30;;
16705;SDS011;8469;60.136;15.180;2023-06-26T00:51:30;5.08;;;2.33;;
16705;SDS011;8469;60.136;15.180;2023-06-26T00:53:57;3.08;;;2.10;;
16705;SDS011;8469;60.136;15.180;2023-06-26T00:56:25;2.20;;;2.00;;
16705;SDS011;8469;60.136;15.180;2023-06-26T00:58:52;2.25;;;2.05;;
16705;SDS011;8469;60.136;15.180;2023-06-26T01:01:19;3.00;;;2.10;;
16705;SDS011;8469;60.136;15.180;2023-06-26T01:03:48;2.55;;;2.10;;
16705;SDS011;8469;60.136;15.180;2023-06-26T01:06:20;2.98;;;2.00;;
16705;SDS011;8469;60.136;15.180;2023-06-26T01:08:50;2.05;;;1.80;;
16705;SDS011;8469;60.136;15.180;2023-06-26T01:11:18;3.90;;;2.17;;
16705;SDS011;8469;60.136;15.180;2023-06-26T01:13:46;2.42;;;2.10;;
16705;SDS011;8469;60.136;15.180;2023-06-26T01:16:13;2.30;;;2.00;;
16705;SDS011;8469;60.136;15.180;2023-06-26T01:18:43;2.30;;;2.00;;
16705;SDS011;8469;60.136;15.180;2023-06-26T01:21:12;1.85;;;1.75;;
16705;SDS011;8469;60.136;15.180;2023-06-26T01:23:56;2.90;;;2.20;;
16705;SDS011;8469;60.136;15.180;2023-06-26T01:26:21;2.60;;;2.10;;
16705;SDS011;8469;60.136;15.180;2023-06-26T01:28:50;3.27;;;2.15;;
16705;SDS011;8469;60.136;15.180;2023-06-26T01:31:18;2.45;;;2.00;;
16705;SDS011;8469;60.136;15.180;2023-06-26T01:33:46;2.22;;;2.00;;
16705;SDS011;8469;60.136;15.180;2023-06-26T01:36:14;2.50;;;2.30;;
16705;SDS011;8469;60.136;15.180;2023-06-26T01:38:41;2.92;;;2.08;;
16705;SDS011;8469;60.136;15.180;2023-06-26T01:41:08;3.60;;;2.08;;
16705;SDS011;8469;60.136;15.180;2023-06-26T01:46:28;3.00;;;2.10;;
16705;SDS011;8469;60.136;15.180;2023-06-26T01:49:03;2.40;;;2.17;;
16705;SDS011;8469;60.136;15.180;2023-06-26T01:51:30;2.10;;;2.00;;
16705;SDS011;8469;60.136;15.180;2023-06-26T01:53:59;2.52;;;2.10;;
16705;SDS011;8469;60.136;15.180;2023-06-26T01:56:28;3.47;;;2.20;;
16705;SDS011;8469;60.136;15.180;2023-06-26T01:58:56;2.67;;;2.13;;
16705;SDS011;8469;60.136;15.180;2023-06-26T02:01:24;2.40;;;2.20;;
16705;SDS011;8469;60.136;15.180;2023-06-26T02:03:52;2.60;;;2.40;;
16705;SDS011;8469;60.136;15.180;2023-06-26T02:06:19;2.12;;;2.00;;
16705;SDS011;8469;60.136;15.180;2023-06-26T02:08:46;3.77;;;2.20;;
16705;SDS011;8469;60.136;15.180;2023-06-26T02:11:14;2.10;;;1.90;;
16705;SDS011;8469;60.136;15.180;2023-06-26T02:13:41;3.17;;;2.20;;
16705;SDS011;8469;60.136;15.180;2023-06-26T02:16:09;4.33;;;2.35;;
16705;SDS011;8469;60.136;15.180;2023-06-26T02:18:36;3.87;;;2.33;;
16705;SDS011;8469;60.136;15.180;2023-06-26T02:21:03;2.47;;;2.00;;
16705;SDS011;8469;60.136;15.180;2023-06-26T02:23:32;3.42;;;2.55;;
16705;SDS011;8469;60.136;15.180;2023-06-26T02:26:00;2.33;;;2.12;;
16705;SDS011;8469;60.136;15.180;2023-06-26T02:28:27;2.33;;;2.00;;
16705;SDS011;8469;60.136;15.180;2023-06-26T02:30:55;4.28;;;2.35;;
16705;SDS011;8469;60.136;15.180;2023-06-26T02:33:23;2.45;;;2.15;;
16705;SDS011;8469;60.136;15.180;2023-06-26T02:35:50;2.58;;;2.05;;
16705;SDS011;8469;60.136;15.180;2023-06-26T02:38:17;2.20;;;2.10;;
16705;SDS011;8469;60.136;15.180;2023-06-26T02:40:45;2.33;;;2.12;;
16705;SDS011;8469;60.136;15.180;2023-06-26T02:43:15;2.73;;;2.10;;
16705;SDS011;8469;60.136;15.180;2023-06-26T02:45:43;2.95;;;2.10;;
16705;SDS011;8469;60.136;15.180;2023-06-26T02:48:10;6.10;;;2.30;;
16705;SDS011;8469;60.136;15.180;2023-06-26T02:50:38;3.83;;;2.80;;
16705;SDS011;8469;60.136;15.180;2023-06-26T02:53:05;4.12;;;2.30;;
16705;SDS011;8469;60.136;15.180;2023-06-26T02:55:33;3.42;;;2.50;;
16705;SDS011;8469;60.136;15.180;2023-06-26T02:58:00;3.85;;;2.58;;
16705;SDS011;8469;60.136;15.180;2023-06-26T03:00:28;2.85;;;2.40;;
16705;SDS011;8469;60.136;15.180;2023-06-26T03:02:56;2.35;;;2.15;;
16705;SDS011;8469;60.136;15.180;2023-06-26T03:05:23;2.70;;;2.30;;
16705;SDS011;8469;60.136;15.180;2023-06-26T03:07:50;3.33;;;2.30;;
16705;SDS011;8469;60.136;15.180;2023-06-26T03:10:18;2.67;;;2.17;;
16705;SDS011;8469;60.136;15.180;2023-06-26T03:12:45;2.87;;;2.40;;
16705;SDS011;8469;60.136;15.180;2023-06-26T03:15:13;2.97;;;2.23;;
16705;SDS011;8469;60.136;15.180;2023-06-26T03:17:40;9.65;;;2.67;;
16705;SDS011;8469;60.136;15.180;2023-06-26T03:20:07;3.55;;;2.50;;
16705;SDS011;8469;60.136;15.180;2023-06-26T03:22:35;3.52;;;2.52;;
16705;SDS011;8469;60.136;15.180;2023-06-26T03:25:03;3.92;;;2.83;;
16705;SDS011;8469;60.136;15.180;2023-06-26T03:27:31;4.17;;;2.20;;
16705;SDS011;8469;60.136;15.180;2023-06-26T03:29:58;3.45;;;2.40;;
16705;SDS011;8469;60.136;15.180;2023-06-26T03:32:26;3.17;;;2.27;;
16705;SDS011;8469;60.136;15.180;2023-06-26T03:34:53;4.58;;;2.37;;
16705;SDS011;8469;60.136;15.180;2023-06-26T03:37:20;5.30;;;3.00;;
16705;SDS011;8469;60.136;15.180;2023-06-26T03:39:48;2.67;;;2.47;;
16705;SDS011;8469;60.136;15.180;2023-06-26T03:42:15;3.12;;;2.52;;
16705;SDS011;8469;60.136;15.180;2023-06-26T03:44:43;3.30;;;2.47;;
16705;SDS011;8469;60.136;15.180;2023-06-26T03:47:10;2.70;;;2.42;;
16705;SDS011;8469;60.136;15.180;2023-06-26T03:49:37;3.07;;;2.30;;
16705;SDS011;8469;60.136;15.180;2023-06-26T03:52:05;5.80;;;2.40;;
16705;SDS011;8469;60.136;15.180;2023-06-26T03:54:32;5.72;;;2.47;;
16705;SDS011;8469;60.136;15.180;2023-06-26T03:57:00;4.40;;;2.33;;
16705;SDS011;8469;60.136;15.180;2023-06-26T03:59:27;3.75;;;2.30;;
16705;SDS011;8469;60.136;15.180;2023-06-26T04:01:54;3.15;;;2.55;;
16705;SDS011;8469;60.136;15.180;2023-06-26T04:04:22;3.62;;;2.30;;
16705;SDS011;8469;60.136;15.180;2023-06-26T04:06:50;3.27;;;2.60;;
16705;SDS011;8469;60.136;15.180;2023-06-26T04:09:17;2.47;;;2.27;;
16705;SDS011;8469;60.136;15.180;2023-06-26T04:11:45;2.42;;;2.22;;
16705;SDS011;8469;60.136;15.180;2023-06-26T04:14:13;2.80;;;2.30;;
16705;SDS011;8469;60.136;15.180;2023-06-26T04:16:40;6.33;;;3.27;;
16705;SDS011;8469;60.136;15.180;2023-06-26T04:19:08;4.85;;;2.90;;
16705;SDS011;8469;60.136;15.180;2023-06-26T04:21:36;2.60;;;2.20;;
16705;SDS011;8469;60.136;15.180;2023-06-26T04:24:03;4.78;;;2.45;;
16705;SDS011;8469;60.136;15.180;2023-06-26T04:26:31;4.80;;;2.60;;
16705;SDS011;8469;60.136;15.180;2023-06-26T04:28:58;2.67;;;2.40;;
16705;SDS011;8469;60.136;15.180;2023-06-26T04:31:26;5.42;;;2.60;;
16705;SDS011;8469;60.136;15.180;2023-06-26T04:33:53;7.37;;;2.70;;
16705;SDS011;8469;60.136;15.180;2023-06-26T04:36:21;2.85;;;2.22;;
16705;SDS011;8469;60.136;15.180;2023-06-26T04:38:48;4.40;;;2.30;;
16705;SDS011;8469;60.136;15.180;2023-06-26T04:41:15;2.70;;;2.20;;
16705;SDS011;8469;60.136;15.180;2023-06-26T04:43:43;2.50;;;2.30;;
16705;SDS011;8469;60.136;15.180;2023-06-26T04:46:11;2.40;;;2.20;;
16705;SDS011;8469;60.136;15.180;2023-06-26T04:48:38;2.60;;;2.40;;
16705;SDS011;8469;60.136;15.180;2023-06-26T04:51:05;4.00;;;2.50;;
16705;SDS011;8469;60.136;15.180;2023-06-26T04:53:33;2.40;;;2.20;;
16705;SDS011;8469;60.136;15.180;2023-06-26T04:56:00;5.08;;;2.20;;
16705;SDS011;8469;60.136;15.180;2023-06-26T04:58:27;3.25;;;2.20;;
16705;SDS011;8469;60.136;15.180;2023-06-26T05:00:55;2.37;;;2.17;;
16705;SDS011;8469;60.136;15.180;2023-06-26T05:03:22;2.95;;;2.20;;
16705;SDS011;8469;60.136;15.180;2023-06-26T05:05:50;2.55;;;2.02;;
16705;SDS011;8469;60.136;15.180;2023-06-26T05:08:18;4.35;;;2.00;;
16705;SDS011;8469;60.136;15.180;2023-06-26T05:10:45;6.30;;;2.35;;
16705;SDS011;8469;60.136;15.180;2023-06-26T05:13:13;2.47;;;1.95;;
16705;SDS011;8469;60.136;15.180;2023-06-26T05:15:42;2.12;;;1.92;;
16705;SDS011;8469;60.136;15.180;2023-06-26T05:18:09;2.23;;;2.03;;
16705;SDS011;8469;60.136;15.180;2023-06-26T05:20:37;2.05;;;1.95;;
16705;SDS011;8469;60.136;15.180;2023-06-26T05:23:04;2.05;;;1.85;;
16705;SDS011;8469;60.136;15.180;2023-06-26T05:25:32;3.52;;;2.10;;
16705;SDS011;8469;60.136;15.180;2023-06-26T05:28:01;2.00;;;1.90;;
16705;SDS011;8469;60.136;15.180;2023-06-26T05:30:30;3.50;;;1.80;;
16705;SDS011;8469;60.136;15.180;2023-06-26T05:32:59;5.83;;;2.00;;
16705;SDS011;8469;60.136;15.180;2023-06-26T05:35:31;2.00;;;1.80;;
16705;SDS011;8469;60.136;15.180;2023-06-26T05:37:58;2.20;;;2.00;;
16705;SDS011;8469;60.136;15.180;2023-06-26T05:40:25;2.95;;;1.70;;
16705;SDS011;8469;60.136;15.180;2023-06-26T05:42:53;3.25;;;1.90;;
16705;SDS011;8469;60.136;15.180;2023-06-26T05:45:20;1.90;;;1.80;;
16705;SDS011;8469;60.136;15.180;2023-06-26T05:47:47;1.90;;;1.80;;
16705;SDS011;8469;60.136;15.180;2023-06-26T05:50:17;2.00;;;1.90;;
16705;SDS011;8469;60.136;15.180;2023-06-26T05:52:44;2.15;;;1.90;;
16705;SDS011;8469;60.136;15.180;2023-06-26T05:55:12;2.55;;;1.95;;
16705;SDS011;8469;60.136;15.180;2023-06-26T05:57:40;7.15;;;2.22;;
16705;SDS011;8469;60.136;15.180;2023-06-26T06:00:07;3.20;;;2.00;;
16705;SDS011;8469;60.136;15.180;2023-06-26T06:02:37;1.93;;;1.83;;
16705;SDS011;8469;60.136;15.180;2023-06-26T06:05:04;1.80;;;1.65;;
16705;SDS011;8469;60.136;15.180;2023-06-26T06:07:32;2.98;;;1.98;;
16705;SDS011;8469;60.136;15.180;2023-06-26T06:10:00;2.22;;;2.00;;
16705;SDS011;8469;60.136;15.180;2023-06-26T06:12:27;4.30;;;1.77;;
16705;SDS011;8469;60.136;15.180;2023-06-26T06:14:55;5.35;;;2.00;;
16705;SDS011;8469;60.136;15.180;2023-06-26T06:17:23;1.90;;;1.80;;
16705;SDS011;8469;60.136;15.180;2023-06-26T06:19:50;1.80;;;1.70;;
16705;SDS011;8469;60.136;15.180;2023-06-26T06:22:17;2.00;;;1.90;;
16705;SDS011;8469;60.136;15.180;2023-06-26T06:24:45;2.70;;;1.75;;
16705;SDS011;8469;60.136;15.180;2023-06-26T06:27:12;1.92;;;1.82;;
16705;SDS011;8469;60.136;15.180;2023-06-26T06:29:41;1.87;;;1.77;;
16705;SDS011;8469;60.136;15.180;2023-06-26T06:32:08;1.90;;;1.80;;
16705;SDS011;8469;60.136;15.180;2023-06-26T06:34:35;1.95;;;1.60;;
16705;SDS011;8469;60.136;15.180;2023-06-26T06:37:03;3.05;;;1.60;;
16705;SDS011;8469;60.136;15.180;2023-06-26T06:39:30;1.93;;;1.77;;
16705;SDS011;8469;60.136;15.180;2023-06-26T06:41:57;2.12;;;1.77;;
16705;SDS011;8469;60.136;15.180;2023-06-26T06:44:25;2.12;;;1.92;;
16705;SDS011;8469;60.136;15.180;2023-06-26T06:46:52;2.05;;;1.60;;
16705;SDS011;8469;60.136;15.180;2023-06-26T06:49:19;1.80;;;1.70;;
16705;SDS011;8469;60.136;15.180;2023-06-26T06:51:47;1.82;;;1.72;;
16705;SDS011;8469;60.136;15.180;2023-06-26T06:54:15;2.52;;;1.67;;
16705;SDS011;8469;60.136;15.180;2023-06-26T06:56:43;2.55;;;1.70;;
16705;SDS011;8469;60.136;15.180;2023-06-26T06:59:10;1.80;;;1.70;;
16705;SDS011;8469;60.136;15.180;2023-06-26T07:01:38;1.82;;;1.72;;
16705;SDS011;8469;60.136;15.180;2023-06-26T07:04:06;1.72;;;1.62;;
16705;SDS011;8469;60.136;15.180;2023-06-26T07:06:34;2.05;;;1.70;;
16705;SDS011;8469;60.136;15.180;2023-06-26T07:09:01;1.60;;;1.50;;
16705;SDS011;8469;60.136;15.180;2023-06-26T07:11:29;1.80;;;1.70;;
16705;SDS011;8469;60.136;15.180;2023-06-26T07:13:58;1.85;;;1.70;;
16705;SDS011;8469;60.136;15.180;2023-06-26T07:16:25;2.10;;;1.75;;
16705;SDS011;8469;60.136;15.180;2023-06-26T07:18:52;5.37;;;1.90;;
16705;SDS011;8469;60.136;15.180;2023-06-26T07:21:20;1.92;;;1.72;;
16705;SDS011;8469;60.136;15.180;2023-06-26T07:23:48;3.22;;;1.65;;
16705;SDS011;8469;60.136;15.180;2023-06-26T07:26:15;2.30;;;1.60;;
16705;SDS011;8469;60.136;15.180;2023-06-26T07:28:43;2.37;;;2.02;;
16705;SDS011;8469;60.136;15.180;2023-06-26T07:31:10;1.72;;;1.62;;
16705;SDS011;8469;60.136;15.180;2023-06-26T07:33:38;1.87;;;1.70;;
16705;SDS011;8469;60.136;15.180;2023-06-26T07:36:05;2.37;;;1.70;;
16705;SDS011;8469;60.136;15.180;2023-06-26T07:38:32;2.85;;;1.90;;
16705;SDS011;8469;60.136;15.180;2023-06-26T07:41:00;1.70;;;1.60;;
16705;SDS011;8469;60.136;15.180;2023-06-26T07:43:27;2.10;;;1.60;;
16705;SDS011;8469;60.136;15.180;2023-06-26T07:45:54;2.40;;;1.77;;
16705;SDS011;8469;60.136;15.180;2023-06-26T07:48:23;3.43;;;1.80;;
16705;SDS011;8469;60.136;15.180;2023-06-26T07:50:51;2.05;;;1.62;;
16705;SDS011;8469;60.136;15.180;2023-06-26T07:53:18;1.82;;;1.70;;
16705;SDS011;8469;60.136;15.180;2023-06-26T07:55:45;2.17;;;1.70;;
16705;SDS011;8469;60.136;15.180;2023-06-26T07:58:13;1.90;;;1.75;;
16705;SDS011;8469;60.136;15.180;2023-06-26T08:00:40;2.10;;;1.60;;
16705;SDS011;8469;60.136;15.180;2023-06-26T08:03:08;1.90;;;1.80;;
16705;SDS011;8469;60.136;15.180;2023-06-26T08:05:35;5.17;;;1.90;;
16705;SDS011;8469;60.136;15.180;2023-06-26T08:08:02;1.87;;;1.75;;
16705;SDS011;8469;60.136;15.180;2023-06-26T08:10:30;2.77;;;1.50;;
16705;SDS011;8469;60.136;15.180;2023-06-26T08:12:57;1.70;;;1.60;;
16705;SDS011;8469;60.136;15.180;2023-06-26T08:15:24;1.77;;;1.67;;
16705;SDS011;8469;60.136;15.180;2023-06-26T08:17:52;2.40;;;1.90;;
16705;SDS011;8469;60.136;15.180;2023-06-26T08:20:20;4.05;;;1.90;;
16705;SDS011;8469;60.136;15.180;2023-06-26T08:22:48;2.10;;;1.90;;
16705;SDS011;8469;60.136;15.180;2023-06-26T08:25:17;1.80;;;1.70;;
16705;SDS011;8469;60.136;15.180;2023-06-26T08:27:45;2.90;;;1.77;;
16705;SDS011;8469;60.136;15.180;2023-06-26T08:30:12;1.52;;;1.42;;
16705;SDS011;8469;60.136;15.180;2023-06-26T08:32:39;2.95;;;1.77;;
16705;SDS011;8469;60.136;15.180;2023-06-26T08:35:07;1.50;;;1.40;;
16705;SDS011;8469;60.136;15.180;2023-06-26T08:37:36;1.67;;;1.57;;
16705;SDS011;8469;60.136;15.180;2023-06-26T08:40:03;1.60;;;1.50;;
16705;SDS011;8469;60.136;15.180;2023-06-26T08:42:31;1.70;;;1.60;;
16705;SDS011;8469;60.136;15.180;2023-06-26T08:44:58;3.60;;;2.00;;
16705;SDS011;8469;60.136;15.180;2023-06-26T08:47:25;1.90;;;1.80;;
16705;SDS011;8469;60.136;15.180;2023-06-26T08:49:56;1.77;;;1.67;;
16705;SDS011;8469;60.136;15.180;2023-06-26T08:52:28;1.83;;;1.60;;
16705;SDS011;8469;60.136;15.180;2023-06-26T08:55:00;1.62;;;1.52;;
16705;SDS011;8469;60.136;15.180;2023-06-26T08:57:29;1.63;;;1.53;;
16705;SDS011;8469;60.136;15.180;2023-06-26T08:59:57;1.55;;;1.45;;
16705;SDS011;8469;60.136;15.180;2023-06-26T09:02:25;1.70;;;1.60;;
16705;SDS011;8469;60.136;15.180;2023-06-26T09:04:52;1.75;;;1.65;;
16705;SDS011;8469;60.136;15.180;2023-06-26T09:07:20;1.82;;;1.62;;
16705;SDS011;8469;60.136;15.180;2023-06-26T09:09:47;1.75;;;1.60;;
16705;SDS011;8469;60.136;15.180;2023-06-26T09:12:14;1.70;;;1.60;;
16705;SDS011;8469;60.136;15.180;2023-06-26T09:14:41;1.53;;;1.47;;
16705;SDS011;8469;60.136;15.180;2023-06-26T09:17:10;7.12;;;2.10;;
16705;SDS011;8469;60.136;15.180;2023-06-26T09:19:37;1.82;;;1.70;;
16705;SDS011;8469;60.136;15.180;2023-06-26T09:22:10;1.80;;;1.70;;
16705;SDS011;8469;60.136;15.180;2023-06-26T09:24:34;2.80;;;1.60;;
16705;SDS011;8469;60.136;15.180;2023-06-26T09:27:02;2.05;;;1.85;;
16705;SDS011;8469;60.136;15.180;2023-06-26T09:29:29;1.92;;;1.82;;
16705;SDS011;8469;60.136;15.180;2023-06-26T09:31:57;2.30;;;1.60;;
16705;SDS011;8469;60.136;15.180;2023-06-26T09:34:29;2.75;;;1.60;;
16705;SDS011;8469;60.136;15.180;2023-06-26T09:36:59;2.20;;;1.60;;
16705;SDS011;8469;60.136;15.180;2023-06-26T09:39:31;2.40;;;1.80;;
16705;SDS011;8469;60.136;15.180;2023-06-26T09:41:58;2.05;;;1.62;;
16705;SDS011;8469;60.136;15.180;2023-06-26T09:44:28;2.85;;;2.60;;
16705;SDS011;8469;60.136;15.180;2023-06-26T09:46:57;1.87;;;1.77;;
16705;SDS011;8469;60.136;15.180;2023-06-26T09:49:24;3.30;;;2.20;;
16705;SDS011;8469;60.136;15.180;2023-06-26T09:51:52;1.70;;;1.60;;
16705;SDS011;8469;60.136;15.180;2023-06-26T09:54:21;3.87;;;2.00;;
16705;SDS011;8469;60.136;15.180;2023-06-26T09:56:49;3.47;;;2.27;;
16705;SDS011;8469;60.136;15.180;2023-06-26T09:59:16;1.82;;;1.72;;
16705;SDS011;8469;60.136;15.180;2023-06-26T10:01:45;2.22;;;2.10;;
16705;SDS011;8469;60.136;15.180;2023-06-26T10:04:12;2.25;;;2.05;;
16705;SDS011;8469;60.136;15.180;2023-06-26T10:06:46;2.55;;;1.77;;
16705;SDS011;8469;60.136;15.180;2023-06-26T10:09:16;1.90;;;1.80;;
16705;SDS011;8469;60.136;15.180;2023-06-26T10:14:16;1.85;;;1.75;;
16705;SDS011;8469;60.136;15.180;2023-06-26T10:16:44;3.33;;;2.00;;
16705;SDS011;8469;60.136;15.180;2023-06-26T10:19:14;2.15;;;1.95;;
16705;SDS011;8469;60.136;15.180;2023-06-26T10:21:44;12.05;;;2.30;;
16705;SDS011;8469;60.136;15.180;2023-06-26T10:24:12;2.33;;;2.12;;
16705;SDS011;8469;60.136;15.180;2023-06-26T10:26:42;2.30;;;2.07;;
16705;SDS011;8469;60.136;15.180;2023-06-26T10:29:09;2.13;;;2.03;;
16705;SDS011;8469;60.136;15.180;2023-06-26T10:31:36;2.17;;;2.02;;
16705;SDS011;8469;60.136;15.180;2023-06-26T10:34:06;2.08;;;1.95;;
16705;SDS011;8469;60.136;15.180;2023-06-26T10:36:34;3.90;;;2.03;;
16705;SDS011;8469;60.136;15.180;2023-06-26T10:39:06;2.10;;;1.90;;
16705;SDS011;8469;60.136;15.180;2023-06-26T10:41:37;3.55;;;2.35;;
16705;SDS011;8469;60.136;15.180;2023-06-26T10:44:16;2.22;;;2.02;;
16705;SDS011;8469;60.136;15.180;2023-06-26T10:46:54;3.20;;;2.40;;
16705;SDS011;8469;60.136;15.180;2023-06-26T10:49:29;3.30;;;2.12;;
16705;SDS011;8469;60.136;15.180;2023-06-26T10:51:55;4.10;;;2.80;;
16705;SDS011;8469;60.136;15.180;2023-06-26T10:54:28;2.02;;;1.90;;
16705;SDS011;8469;60.136;15.180;2023-06-26T10:56:54;2.40;;;2.20;;
16705;SDS011;8469;60.136;15.180;2023-06-26T10:59:32;2.85;;;2.30;;
16705;SDS011;8469;60.136;15.180;2023-06-26T11:01:55;2.12;;;2.00;;
16705;SDS011;8469;60.136;15.180;2023-06-26T11:04:40;2.17;;;2.07;;
16705;SDS011;8469;60.136;15.180;2023-06-26T11:07:20;2.50;;;2.15;;
16705;SDS011;8469;60.136;15.180;2023-06-26T11:09:58;2.10;;;2.00;;
16705;SDS011;8469;60.136;15.180;2023-06-26T11:12:42;2.00;;;1.90;;
16705;SDS011;8469;60.136;15.180;2023-06-26T11:15:10;1.90;;;1.80;;
16705;SDS011;8469;60.136;15.180;2023-06-26T11:17:37;2.40;;;1.90;;
16705;SDS011;8469;60.136;15.180;2023-06-26T11:20:05;2.08;;;1.87;;
16705;SDS011;8469;60.136;15.180;2023-06-26T11:22:37;3.02;;;2.00;;
16705;SDS011;8469;60.136;15.180;2023-06-26T11:25:06;3.25;;;2.15;;
16705;SDS011;8469;60.136;15.180;2023-06-26T11:30:10;2.33;;;2.13;;
16705;SDS011;8469;60.136;15.180;2023-06-26T11:32:38;2.25;;;2.10;;
16705;SDS011;8469;60.136;15.180;2023-06-26T11:35:05;3.10;;;2.10;;
16705;SDS011;8469;60.136;15.180;2023-06-26T11:37:35;2.10;;;2.00;;
16705;SDS011;8469;60.136;15.180;2023-06-26T11:40:18;2.10;;;2.00;;
16705;SDS011;8469;60.136;15.180;2023-06-26T11:42:45;2.37;;;2.10;;
16705;SDS011;8469;60.136;15.180;2023-06-26T11:45:13;2.45;;;2.10;;
16705;SDS011;8469;60.136;15.180;2023-06-26T11:47:41;2.00;;;1.90;;
16705;SDS011;8469;60.136;15.180;2023-06-26T11:50:14;2.37;;;2.20;;
16705;SDS011;8469;60.136;15.180;2023-06-26T11:52:41;2.15;;;2.05;;
16705;SDS011;8469;60.136;15.180;2023-06-26T11:55:06;2.53;;;2.33;;
16705;SDS011;8469;60.136;15.180;2023-06-26T11:57:33;2.35;;;2.20;;
16705;SDS011;8469;60.136;15.180;2023-06-26T12:00:10;2.67;;;2.00;;
16705;SDS011;8469;60.136;15.180;2023-06-26T12:02:30;3.30;;;2.35;;
16705;SDS011;8469;60.136;15.180;2023-06-26T12:04:58;4.83;;;2.37;;
16705;SDS011;8469;60.136;15.180;2023-06-26T12:07:25;2.30;;;2.20;;
16705;SDS011;8469;60.136;15.180;2023-06-26T12:09:57;3.37;;;2.10;;
16705;SDS011;8469;60.136;15.180;2023-06-26T12:12:25;2.70;;;2.50;;
16705;SDS011;8469;60.136;15.180;2023-06-26T12:14:53;3.22;;;2.60;;
16705;SDS011;8469;60.136;15.180;2023-06-26T12:17:22;2.65;;;2.00;;
16705;SDS011;8469;60.136;15.180;2023-06-26T12:19:50;2.10;;;2.00;;
16705;SDS011;8469;60.136;15.180;2023-06-26T12:22:18;2.62;;;2.42;;
16705;SDS011;8469;60.136;15.180;2023-06-26T12:24:46;2.20;;;2.10;;
16705;SDS011;8469;60.136;15.180;2023-06-26T12:27:14;2.45;;;2.25;;
16705;SDS011;8469;60.136;15.180;2023-06-26T12:29:46;2.30;;;2.00;;
16705;SDS011;8469;60.136;15.180;2023-06-26T12:32:10;2.30;;;2.20;;
16705;SDS011;8469;60.136;15.180;2023-06-26T12:34:38;2.17;;;2.08;;
16705;SDS011;8469;60.136;15.180;2023-06-26T12:37:07;2.62;;;2.20;;
16705;SDS011;8469;60.136;15.180;2023-06-26T12:42:21;2.45;;;2.25;;
16705;SDS011;8469;60.136;15.180;2023-06-26T12:44:50;5.37;;;2.20;;
16705;SDS011;8469;60.136;15.180;2023-06-26T12:47:23;2.40;;;2.20;;
16705;SDS011;8469;60.136;15.180;2023-06-26T12:49:50;2.33;;;2.22;;
16705;SDS011;8469;60.136;15.180;2023-06-26T12:52:17;2.58;;;2.37;;
16705;SDS011;8469;60.136;15.180;2023-06-26T12:54:46;3.43;;;2.40;;
16705;SDS011;8469;60.136;15.180;2023-06-26T12:57:14;2.40;;;2.20;;
16705;SDS011;8469;60.136;15.180;2023-06-26T12:59:41;3.52;;;2.30;;
16705;SDS011;8469;60.136;15.180;2023-06-26T13:02:08;6.40;;;2.40;;
16705;SDS011;8469;60.136;15.180;2023-06-26T13:04:38;2.47;;;2.27;;
16705;SDS011;8469;60.136;15.180;2023-06-26T13:07:07;2.50;;;2.30;;
16705;SDS011;8469;60.136;15.180;2023-06-26T13:09:35;2.42;;;2.20;;
16705;SDS011;8469;60.136;15.180;2023-06-26T13:12:03;4.03;;;2.20;;
16705;SDS011;8469;60.136;15.180;2023-06-26T13:14:31;2.45;;;2.25;;
16705;SDS011;8469;60.136;15.180;2023-06-26T13:16:57;2.40;;;2.20;;
16705;SDS011;8469;60.136;15.180;2023-06-26T13:19:27;2.95;;;2.20;;
16705;SDS011;8469;60.136;15.180;2023-06-26T13:21:54;2.50;;;2.00;;
16705;SDS011;8469;60.136;15.180;2023-06-26T13:24:22;2.27;;;2.12;;
16705;SDS011;8469;60.136;15.180;2023-06-26T13:26:49;2.42;;;2.25;;
16705;SDS011;8469;60.136;15.180;2023-06-26T13:29:16;2.70;;;2.22;;
16705;SDS011;8469;60.136;15.180;2023-06-26T13:31:44;2.62;;;2.42;;
16705;SDS011;8469;60.136;15.180;2023-06-26T13:34:19;3.52;;;2.30;;
16705;SDS011;8469;60.136;15.180;2023-06-26T13:36:40;3.98;;;2.37;;
16705;SDS011;8469;60.136;15.180;2023-06-26T13:39:08;4.37;;;2.33;;
16705;SDS011;8469;60.136;15.180;2023-06-26T13:41:35;2.52;;;2.30;;
16705;SDS011;8469;60.136;15.180;2023-06-26T13:44:03;2.60;;;2.40;;
16705;SDS011;8469;60.136;15.180;2023-06-26T13:46:30;3.87;;;2.12;;
16705;SDS011;8469;60.136;15.180;2023-06-26T13:48:58;4.80;;;2.10;;
16705;SDS011;8469;60.136;15.180;2023-06-26T13:51:25;2.40;;;2.30;;
16705;SDS011;8469;60.136;15.180;2023-06-26T13:53:53;2.60;;;2.40;;
16705;SDS011;8469;60.136;15.180;2023-06-26T13:56:21;3.33;;;2.25;;
16705;SDS011;8469;60.136;15.180;2023-06-26T13:58:49;2.50;;;2.30;;
16705;SDS011;8469;60.136;15.180;2023-06-26T14:01:16;2.72;;;2.17;;
16705;SDS011;8469;60.136;15.180;2023-06-26T14:03:44;2.92;;;2.20;;
16705;SDS011;8469;60.136;15.180;2023-06-26T14:06:11;2.40;;;2.20;;
16705;SDS011;8469;60.136;15.180;2023-06-26T14:08:39;2.12;;;2.02;;
16705;SDS011;8469;60.136;15.180;2023-06-26T14:11:06;2.47;;;2.30;;
16705;SDS011;8469;60.136;15.180;2023-06-26T14:13:34;2.30;;;2.20;;
16705;SDS011;8469;60.136;15.180;2023-06-26T14:16:01;2.37;;;2.17;;
16705;SDS011;8469;60.136;15.180;2023-06-26T14:18:29;2.47;;;2.27;;
16705;SDS011;8469;60.136;15.180;2023-06-26T14:20:56;3.55;;;2.40;;
16705;SDS011;8469;60.136;15.180;2023-06-26T14:23:28;2.30;;;2.20;;
16705;SDS011;8469;60.136;15.180;2023-06-26T14:25:52;2.10;;;2.00;;
16705;SDS011;8469;60.136;15.180;2023-06-26T14:28:20;6.55;;;2.60;;
16705;SDS011;8469;60.136;15.180;2023-06-26T14:30:47;2.60;;;2.40;;
16705;SDS011;8469;60.136;15.180;2023-06-26T14:33:14;2.20;;;2.10;;
16705;SDS011;8469;60.136;15.180;2023-06-26T14:35:42;2.42;;;2.22;;
16705;SDS011;8469;60.136;15.180;2023-06-26T14:38:09;4.00;;;2.33;;
16705;SDS011;8469;60.136;15.180;2023-06-26T14:40:36;3.05;;;2.30;;
16705;SDS011;8469;60.136;15.180;2023-06-26T14:43:04;2.25;;;2.08;;
16705;SDS011;8469;60.136;15.180;2023-06-26T14:45:31;3.25;;;2.35;;
16705;SDS011;8469;60.136;15.180;2023-06-26T14:47:58;2.30;;;2.20;;
16705;SDS011;8469;60.136;15.180;2023-06-26T14:50:26;2.60;;;2.40;;
16705;SDS011;8469;60.136;15.180;2023-06-26T14:52:53;2.40;;;2.20;;
16705;SDS011;8469;60.136;15.180;2023-06-26T14:55:21;2.30;;;2.20;;
16705;SDS011;8469;60.136;15.180;2023-06-26T14:57:48;2.22;;;2.10;;
16705;SDS011;8469;60.136;15.180;2023-06-26T15:00:15;2.50;;;2.30;;
16705;SDS011;8469;60.136;15.180;2023-06-26T15:02:43;2.35;;;2.20;;
16705;SDS011;8469;60.136;15.180;2023-06-26T15:05:10;2.70;;;2.30;;